sensor_id;sensor_type;location;lat;lon;timestamp;P1;durP1;ratioP1;P2;durP2;ratioP2
70213;SDS011;60138;55.808;37.078;2023-08-06T00:01:30;29.42;;;13.65;;
70213;SDS011;60138;55.808;37.078;2023-08-06T00:03:56;27.60;;;13.20;;
70213;SDS011;60138;55.808;37.078;2023-08-06T00:06:22;20.27;;;12.83;;
70213;SDS011;60138;55.808;37.078;2023-08-06T00:08:49;20.13;;;13.48;;
70213;SDS011;60138;55.808;37.078;2023-08-06T00:11:14;23.15;;;13.82;;
70213;SDS011;60138;55.808;37.078;2023-08-06T00:13:40;22.63;;;13.40;;
70213;SDS011;60138;55.808;37.078;2023-08-06T00:16:12;22.90;;;13.50;;
70213;SDS011;60138;55.808;37.078;2023-08-06T00:18:39;24.27;;;13.40;;
70213;SDS011;60138;55.808;37.078;2023-08-06T00:21:05;26.40;;;13.18;;
70213;SDS011;60138;55.808;37.078;2023-08-06T00:23:31;21.55;;;13.23;;
70213;SDS011;60138;55.808;37.078;2023-08-06T00:25:56;25.48;;;14.25;;
70213;SDS011;60138;55.808;37.078;2023-08-06T00:28:22;24.50;;;13.40;;
70213;SDS011;60138;55.808;37.078;2023-08-06T00:30:55;23.15;;;13.27;;
70213;SDS011;60138;55.808;37.078;2023-08-06T00:33:21;25.95;;;14.00;;
70213;SDS011;60138;55.808;37.078;2023-08-06T00:35:47;23.70;;;14.00;;
70213;SDS011;60138;55.808;37.078;2023-08-06T00:38:13;21.60;;;13.55;;
70213;SDS011;60138;55.808;37.078;2023-08-06T00:40:39;22.25;;;12.82;;
70213;SDS011;60138;55.808;37.078;2023-08-06T00:43:05;21.13;;;13.00;;
70213;SDS011;60138;55.808;37.078;2023-08-06T00:45:31;20.25;;;12.07;;
70213;SDS011;60138;55.808;37.078;2023-08-06T00:48:00;24.25;;;13.43;;
70213;SDS011;60138;55.808;37.078;2023-08-06T00:50:26;25.23;;;12.60;;
70213;SDS011;60138;55.808;37.078;2023-08-06T00:52:52;22.60;;;11.82;;
70213;SDS011;60138;55.808;37.078;2023-08-06T00:55:18;23.67;;;12.82;;
70213;SDS011;60138;55.808;37.078;2023-08-06T00:57:45;22.15;;;12.20;;
70213;SDS011;60138;55.808;37.078;2023-08-06T01:00:11;26.60;;;11.57;;
70213;SDS011;60138;55.808;37.078;2023-08-06T01:02:37;18.90;;;11.82;;
70213;SDS011;60138;55.808;37.078;2023-08-06T01:05:03;23.63;;;12.82;;
70213;SDS011;60138;55.808;37.078;2023-08-06T01:07:33;19.80;;;11.23;;
70213;SDS011;60138;55.808;37.078;2023-08-06T01:15:41;24.98;;;11.32;;
70213;SDS011;60138;55.808;37.078;2023-08-06T01:18:12;18.35;;;12.45;;
70213;SDS011;60138;55.808;37.078;2023-08-06T01:20:38;22.50;;;10.67;;
70213;SDS011;60138;55.808;37.078;2023-08-06T01:23:04;20.65;;;10.93;;
70213;SDS011;60138;55.808;37.078;2023-08-06T01:25:32;15.13;;;10.55;;
70213;SDS011;60138;55.808;37.078;2023-08-06T01:28:05;18.70;;;11.20;;
70213;SDS011;60138;55.808;37.078;2023-08-06T01:30:39;26.13;;;12.23;;
70213;SDS011;60138;55.808;37.078;2023-08-06T01:33:09;18.75;;;10.65;;
70213;SDS011;60138;55.808;37.078;2023-08-06T01:35:38;22.05;;;11.43;;
70213;SDS011;60138;55.808;37.078;2023-08-06T01:38:04;26.52;;;12.50;;
70213;SDS011;60138;55.808;37.078;2023-08-06T01:40:30;25.37;;;13.23;;
70213;SDS011;60138;55.808;37.078;2023-08-06T01:42:56;21.70;;;13.52;;
70213;SDS011;60138;55.808;37.078;2023-08-06T01:45:22;23.33;;;14.17;;
70213;SDS011;60138;55.808;37.078;2023-08-06T01:47:49;22.58;;;13.38;;
70213;SDS011;60138;55.808;37.078;2023-08-06T01:50:14;24.08;;;13.52;;
70213;SDS011;60138;55.808;37.078;2023-08-06T01:52:40;23.97;;;13.57;;
70213;SDS011;60138;55.808;37.078;2023-08-06T01:55:06;19.92;;;12.73;;
70213;SDS011;60138;55.808;37.078;2023-08-06T01:57:32;22.33;;;13.03;;
70213;SDS011;60138;55.808;37.078;2023-08-06T01:59:58;21.38;;;12.63;;
70213;SDS011;60138;55.808;37.078;2023-08-06T02:02:24;23.63;;;13.77;;
70213;SDS011;60138;55.808;37.078;2023-08-06T02:04:49;17.80;;;12.73;;
70213;SDS011;60138;55.808;37.078;2023-08-06T02:07:15;19.27;;;11.82;;
70213;SDS011;60138;55.808;37.078;2023-08-06T02:09:41;23.33;;;12.27;;
70213;SDS011;60138;55.808;37.078;2023-08-06T02:12:07;19.65;;;11.45;;
70213;SDS011;60138;55.808;37.078;2023-08-06T02:14:33;21.23;;;12.30;;
70213;SDS011;60138;55.808;37.078;2023-08-06T02:16:59;17.00;;;11.57;;
70213;SDS011;60138;55.808;37.078;2023-08-06T02:19:25;17.40;;;11.57;;
70213;SDS011;60138;55.808;37.078;2023-08-06T02:21:51;18.23;;;11.70;;
70213;SDS011;60138;55.808;37.078;2023-08-06T02:24:17;21.27;;;11.63;;
70213;SDS011;60138;55.808;37.078;2023-08-06T02:26:42;22.77;;;11.87;;
70213;SDS011;60138;55.808;37.078;2023-08-06T02:29:08;20.77;;;12.73;;
70213;SDS011;60138;55.808;37.078;2023-08-06T02:31:34;21.10;;;11.20;;
70213;SDS011;60138;55.808;37.078;2023-08-06T02:34:00;20.63;;;11.85;;
70213;SDS011;60138;55.808;37.078;2023-08-06T02:36:26;18.08;;;11.75;;
70213;SDS011;60138;55.808;37.078;2023-08-06T02:38:51;17.33;;;11.67;;
70213;SDS011;60138;55.808;37.078;2023-08-06T02:41:17;16.38;;;10.73;;
70213;SDS011;60138;55.808;37.078;2023-08-06T02:43:43;20.43;;;10.53;;
70213;SDS011;60138;55.808;37.078;2023-08-06T02:46:09;21.77;;;12.23;;
70213;SDS011;60138;55.808;37.078;2023-08-06T02:48:34;23.40;;;11.80;;
70213;SDS011;60138;55.808;37.078;2023-08-06T02:51:01;19.58;;;11.35;;
70213;SDS011;60138;55.808;37.078;2023-08-06T02:53:29;21.70;;;11.45;;
70213;SDS011;60138;55.808;37.078;2023-08-06T02:55:57;20.95;;;11.68;;
70213;SDS011;60138;55.808;37.078;2023-08-06T02:58:31;20.52;;;11.63;;
70213;SDS011;60138;55.808;37.078;2023-08-06T03:01:23;18.83;;;11.53;;
70213;SDS011;60138;55.808;37.078;2023-08-06T03:03:55;20.58;;;11.20;;
70213;SDS011;60138;55.808;37.078;2023-08-06T03:06:27;19.58;;;11.75;;
70213;SDS011;60138;55.808;37.078;2023-08-06T03:08:56;18.02;;;10.25;;
70213;SDS011;60138;55.808;37.078;2023-08-06T03:11:21;20.58;;;11.55;;
70213;SDS011;60138;55.808;37.078;2023-08-06T03:13:51;20.47;;;10.67;;
70213;SDS011;60138;55.808;37.078;2023-08-06T03:16:17;21.33;;;11.48;;
70213;SDS011;60138;55.808;37.078;2023-08-06T03:18:43;15.50;;;10.80;;
70213;SDS011;60138;55.808;37.078;2023-08-06T03:21:10;16.67;;;11.20;;
70213;SDS011;60138;55.808;37.078;2023-08-06T03:23:35;17.67;;;12.07;;
70213;SDS011;60138;55.808;37.078;2023-08-06T03:26:02;17.58;;;10.70;;
70213;SDS011;60138;55.808;37.078;2023-08-06T03:28:29;17.38;;;10.38;;
70213;SDS011;60138;55.808;37.078;2023-08-06T03:31:04;16.57;;;10.47;;
70213;SDS011;60138;55.808;37.078;2023-08-06T03:33:39;17.83;;;10.55;;
70213;SDS011;60138;55.808;37.078;2023-08-06T03:36:09;17.10;;;10.05;;
70213;SDS011;60138;55.808;37.078;2023-08-06T03:38:35;17.73;;;10.55;;
70213;SDS011;60138;55.808;37.078;2023-08-06T03:41:04;20.15;;;11.25;;
70213;SDS011;60138;55.808;37.078;2023-08-06T03:43:30;16.97;;;10.60;;
70213;SDS011;60138;55.808;37.078;2023-08-06T03:45:56;16.77;;;10.50;;
70213;SDS011;60138;55.808;37.078;2023-08-06T03:48:22;14.68;;;10.00;;
70213;SDS011;60138;55.808;37.078;2023-08-06T03:50:48;13.87;;;9.30;;
70213;SDS011;60138;55.808;37.078;2023-08-06T03:53:15;14.70;;;8.98;;
70213;SDS011;60138;55.808;37.078;2023-08-06T03:55:41;14.68;;;8.95;;
70213;SDS011;60138;55.808;37.078;2023-08-06T03:58:08;15.02;;;8.48;;
70213;SDS011;60138;55.808;37.078;2023-08-06T04:00:33;14.50;;;8.73;;
70213;SDS011;60138;55.808;37.078;2023-08-06T04:02:59;15.38;;;8.18;;
70213;SDS011;60138;55.808;37.078;2023-08-06T04:05:27;19.55;;;9.25;;
70213;SDS011;60138;55.808;37.078;2023-08-06T04:07:53;17.47;;;8.73;;
70213;SDS011;60138;55.808;37.078;2023-08-06T04:10:19;18.83;;;9.27;;
70213;SDS011;60138;55.808;37.078;2023-08-06T04:12:45;17.27;;;9.40;;
70213;SDS011;60138;55.808;37.078;2023-08-06T04:15:11;15.47;;;8.87;;
70213;SDS011;60138;55.808;37.078;2023-08-06T04:17:37;15.23;;;8.43;;
70213;SDS011;60138;55.808;37.078;2023-08-06T04:20:03;10.82;;;8.00;;
70213;SDS011;60138;55.808;37.078;2023-08-06T04:22:29;13.27;;;7.90;;
70213;SDS011;60138;55.808;37.078;2023-08-06T04:24:55;13.40;;;7.97;;
70213;SDS011;60138;55.808;37.078;2023-08-06T04:27:21;13.87;;;7.47;;
70213;SDS011;60138;55.808;37.078;2023-08-06T04:29:48;14.70;;;7.43;;
70213;SDS011;60138;55.808;37.078;2023-08-06T04:32:14;15.25;;;7.55;;
70213;SDS011;60138;55.808;37.078;2023-08-06T04:34:46;12.20;;;6.72;;
70213;SDS011;60138;55.808;37.078;2023-08-06T04:37:11;14.43;;;7.13;;
70213;SDS011;60138;55.808;37.078;2023-08-06T04:39:37;13.00;;;6.85;;
70213;SDS011;60138;55.808;37.078;2023-08-06T04:42:03;17.05;;;6.78;;
70213;SDS011;60138;55.808;37.078;2023-08-06T04:44:29;11.73;;;7.00;;
70213;SDS011;60138;55.808;37.078;2023-08-06T04:46:55;10.68;;;6.80;;
70213;SDS011;60138;55.808;37.078;2023-08-06T04:49:21;10.32;;;6.93;;
70213;SDS011;60138;55.808;37.078;2023-08-06T04:51:47;18.63;;;7.10;;
70213;SDS011;60138;55.808;37.078;2023-08-06T04:54:13;10.13;;;6.80;;
70213;SDS011;60138;55.808;37.078;2023-08-06T04:56:38;11.02;;;6.50;;
70213;SDS011;60138;55.808;37.078;2023-08-06T04:59:04;10.80;;;6.73;;
70213;SDS011;60138;55.808;37.078;2023-08-06T05:01:30;13.75;;;6.93;;
70213;SDS011;60138;55.808;37.078;2023-08-06T05:03:56;12.40;;;7.35;;
70213;SDS011;60138;55.808;37.078;2023-08-06T05:06:22;10.97;;;7.37;;
70213;SDS011;60138;55.808;37.078;2023-08-06T05:08:47;12.87;;;7.27;;
70213;SDS011;60138;55.808;37.078;2023-08-06T05:11:13;17.77;;;6.78;;
70213;SDS011;60138;55.808;37.078;2023-08-06T05:13:39;12.70;;;7.20;;
70213;SDS011;60138;55.808;37.078;2023-08-06T05:16:04;13.90;;;7.53;;
70213;SDS011;60138;55.808;37.078;2023-08-06T05:18:30;11.27;;;6.90;;
70213;SDS011;60138;55.808;37.078;2023-08-06T05:20:56;12.90;;;6.67;;
70213;SDS011;60138;55.808;37.078;2023-08-06T05:23:22;11.90;;;7.30;;
70213;SDS011;60138;55.808;37.078;2023-08-06T05:25:47;12.13;;;6.77;;
70213;SDS011;60138;55.808;37.078;2023-08-06T05:28:13;13.48;;;6.10;;
70213;SDS011;60138;55.808;37.078;2023-08-06T05:30:39;13.03;;;6.87;;
70213;SDS011;60138;55.808;37.078;2023-08-06T05:33:05;11.52;;;6.57;;
70213;SDS011;60138;55.808;37.078;2023-08-06T05:35:31;12.60;;;6.87;;
70213;SDS011;60138;55.808;37.078;2023-08-06T05:37:57;12.85;;;6.53;;
70213;SDS011;60138;55.808;37.078;2023-08-06T05:40:22;13.70;;;7.20;;
70213;SDS011;60138;55.808;37.078;2023-08-06T05:42:48;11.25;;;6.07;;
70213;SDS011;60138;55.808;37.078;2023-08-06T05:45:14;10.57;;;6.03;;
70213;SDS011;60138;55.808;37.078;2023-08-06T05:47:40;11.18;;;6.10;;
70213;SDS011;60138;55.808;37.078;2023-08-06T05:50:06;11.48;;;6.68;;
70213;SDS011;60138;55.808;37.078;2023-08-06T05:52:32;14.48;;;6.80;;
70213;SDS011;60138;55.808;37.078;2023-08-06T05:54:58;11.40;;;6.60;;
70213;SDS011;60138;55.808;37.078;2023-08-06T05:57:24;10.32;;;6.50;;
70213;SDS011;60138;55.808;37.078;2023-08-06T05:59:50;11.47;;;6.27;;
70213;SDS011;60138;55.808;37.078;2023-08-06T06:02:16;10.32;;;6.50;;
70213;SDS011;60138;55.808;37.078;2023-08-06T06:04:41;10.20;;;6.18;;
70213;SDS011;60138;55.808;37.078;2023-08-06T06:07:07;12.27;;;5.60;;
70213;SDS011;60138;55.808;37.078;2023-08-06T06:09:33;11.88;;;5.95;;
70213;SDS011;60138;55.808;37.078;2023-08-06T06:11:58;11.20;;;5.87;;
70213;SDS011;60138;55.808;37.078;2023-08-06T06:14:24;12.05;;;6.53;;
70213;SDS011;60138;55.808;37.078;2023-08-06T06:16:50;14.17;;;5.80;;
70213;SDS011;60138;55.808;37.078;2023-08-06T06:19:16;11.10;;;5.93;;
70213;SDS011;60138;55.808;37.078;2023-08-06T06:21:41;12.53;;;5.73;;
70213;SDS011;60138;55.808;37.078;2023-08-06T06:24:07;12.05;;;6.07;;
70213;SDS011;60138;55.808;37.078;2023-08-06T06:26:33;8.73;;;5.63;;
70213;SDS011;60138;55.808;37.078;2023-08-06T06:28:59;8.70;;;5.22;;
70213;SDS011;60138;55.808;37.078;2023-08-06T06:31:25;13.63;;;5.95;;
70213;SDS011;60138;55.808;37.078;2023-08-06T06:33:50;8.47;;;5.73;;
70213;SDS011;60138;55.808;37.078;2023-08-06T06:36:16;9.32;;;5.68;;
70213;SDS011;60138;55.808;37.078;2023-08-06T06:38:42;6.50;;;4.90;;
70213;SDS011;60138;55.808;37.078;2023-08-06T06:41:08;9.77;;;5.45;;
70213;SDS011;60138;55.808;37.078;2023-08-06T06:43:33;11.10;;;5.17;;
70213;SDS011;60138;55.808;37.078;2023-08-06T06:45:59;9.07;;;5.00;;
70213;SDS011;60138;55.808;37.078;2023-08-06T06:48:26;9.60;;;4.65;;
70213;SDS011;60138;55.808;37.078;2023-08-06T06:50:53;9.02;;;5.32;;
70213;SDS011;60138;55.808;37.078;2023-08-06T06:53:19;7.37;;;4.93;;
70213;SDS011;60138;55.808;37.078;2023-08-06T06:55:44;10.20;;;4.93;;
70213;SDS011;60138;55.808;37.078;2023-08-06T06:58:10;9.67;;;5.17;;
70213;SDS011;60138;55.808;37.078;2023-08-06T07:00:36;11.85;;;4.75;;
70213;SDS011;60138;55.808;37.078;2023-08-06T07:03:02;12.40;;;4.97;;
70213;SDS011;60138;55.808;37.078;2023-08-06T07:05:28;9.93;;;5.03;;
70213;SDS011;60138;55.808;37.078;2023-08-06T07:07:54;10.68;;;5.20;;
70213;SDS011;60138;55.808;37.078;2023-08-06T07:10:20;8.70;;;4.57;;
70213;SDS011;60138;55.808;37.078;2023-08-06T07:12:46;10.07;;;4.70;;
70213;SDS011;60138;55.808;37.078;2023-08-06T07:15:11;16.90;;;4.60;;
70213;SDS011;60138;55.808;37.078;2023-08-06T07:17:37;6.50;;;4.33;;
70213;SDS011;60138;55.808;37.078;2023-08-06T07:20:03;9.20;;;4.25;;
70213;SDS011;60138;55.808;37.078;2023-08-06T07:22:30;9.15;;;4.85;;
70213;SDS011;60138;55.808;37.078;2023-08-06T07:24:56;8.30;;;4.80;;
70213;SDS011;60138;55.808;37.078;2023-08-06T07:27:21;7.15;;;4.47;;
70213;SDS011;60138;55.808;37.078;2023-08-06T07:29:47;8.87;;;5.10;;
70213;SDS011;60138;55.808;37.078;2023-08-06T07:32:13;10.52;;;4.53;;
70213;SDS011;60138;55.808;37.078;2023-08-06T07:34:39;8.57;;;5.10;;
70213;SDS011;60138;55.808;37.078;2023-08-06T07:37:04;9.50;;;5.90;;
70213;SDS011;60138;55.808;37.078;2023-08-06T07:39:30;7.43;;;4.88;;
70213;SDS011;60138;55.808;37.078;2023-08-06T07:41:56;8.83;;;4.70;;
70213;SDS011;60138;55.808;37.078;2023-08-06T07:44:22;8.20;;;4.90;;
70213;SDS011;60138;55.808;37.078;2023-08-06T07:46:47;6.87;;;4.60;;
70213;SDS011;60138;55.808;37.078;2023-08-06T07:49:14;13.07;;;4.45;;
70213;SDS011;60138;55.808;37.078;2023-08-06T07:51:39;8.70;;;4.47;;
70213;SDS011;60138;55.808;37.078;2023-08-06T07:54:05;11.20;;;5.10;;
70213;SDS011;60138;55.808;37.078;2023-08-06T07:56:31;9.25;;;4.60;;
70213;SDS011;60138;55.808;37.078;2023-08-06T07:58:57;11.07;;;5.67;;
70213;SDS011;60138;55.808;37.078;2023-08-06T08:01:23;10.60;;;4.60;;
70213;SDS011;60138;55.808;37.078;2023-08-06T08:03:49;7.22;;;5.07;;
70213;SDS011;60138;55.808;37.078;2023-08-06T08:06:14;8.37;;;5.47;;
70213;SDS011;60138;55.808;37.078;2023-08-06T08:08:40;10.68;;;5.82;;
70213;SDS011;60138;55.808;37.078;2023-08-06T08:11:06;9.77;;;4.63;;
70213;SDS011;60138;55.808;37.078;2023-08-06T08:13:31;7.90;;;5.05;;
70213;SDS011;60138;55.808;37.078;2023-08-06T08:15:58;8.53;;;4.53;;
70213;SDS011;60138;55.808;37.078;2023-08-06T08:18:24;7.65;;;4.18;;
70213;SDS011;60138;55.808;37.078;2023-08-06T08:20:50;10.50;;;5.10;;
70213;SDS011;60138;55.808;37.078;2023-08-06T08:23:16;7.95;;;5.20;;
70213;SDS011;60138;55.808;37.078;2023-08-06T08:25:42;7.72;;;4.80;;
70213;SDS011;60138;55.808;37.078;2023-08-06T08:28:08;8.00;;;3.87;;
70213;SDS011;60138;55.808;37.078;2023-08-06T08:30:34;10.48;;;5.72;;
70213;SDS011;60138;55.808;37.078;2023-08-06T08:33:00;10.13;;;4.77;;
70213;SDS011;60138;55.808;37.078;2023-08-06T08:35:25;9.77;;;4.88;;
70213;SDS011;60138;55.808;37.078;2023-08-06T08:37:51;8.23;;;4.53;;
70213;SDS011;60138;55.808;37.078;2023-08-06T08:40:17;8.13;;;5.38;;
70213;SDS011;60138;55.808;37.078;2023-08-06T08:42:45;8.88;;;4.90;;
70213;SDS011;60138;55.808;37.078;2023-08-06T08:45:11;8.30;;;5.47;;
70213;SDS011;60138;55.808;37.078;2023-08-06T08:47:40;9.63;;;5.30;;
70213;SDS011;60138;55.808;37.078;2023-08-06T08:50:09;10.50;;;5.18;;
70213;SDS011;60138;55.808;37.078;2023-08-06T08:52:35;7.43;;;5.35;;
70213;SDS011;60138;55.808;37.078;2023-08-06T08:55:03;10.47;;;5.37;;
70213;SDS011;60138;55.808;37.078;2023-08-06T08:57:29;10.05;;;4.57;;
70213;SDS011;60138;55.808;37.078;2023-08-06T08:59:55;7.90;;;5.00;;
70213;SDS011;60138;55.808;37.078;2023-08-06T09:02:21;9.52;;;5.00;;
70213;SDS011;60138;55.808;37.078;2023-08-06T09:04:53;9.30;;;4.63;;
70213;SDS011;60138;55.808;37.078;2023-08-06T09:07:21;7.13;;;4.97;;
70213;SDS011;60138;55.808;37.078;2023-08-06T09:09:48;9.40;;;5.45;;
70213;SDS011;60138;55.808;37.078;2023-08-06T09:12:15;7.85;;;4.93;;
70213;SDS011;60138;55.808;37.078;2023-08-06T09:14:42;8.20;;;5.72;;
70213;SDS011;60138;55.808;37.078;2023-08-06T09:17:08;8.43;;;5.20;;
70213;SDS011;60138;55.808;37.078;2023-08-06T09:19:35;8.82;;;5.13;;
70213;SDS011;60138;55.808;37.078;2023-08-06T09:22:00;11.73;;;5.90;;
70213;SDS011;60138;55.808;37.078;2023-08-06T09:24:27;10.18;;;5.70;;
70213;SDS011;60138;55.808;37.078;2023-08-06T09:26:53;13.60;;;5.40;;
70213;SDS011;60138;55.808;37.078;2023-08-06T09:29:19;11.15;;;5.20;;
70213;SDS011;60138;55.808;37.078;2023-08-06T09:31:48;8.30;;;5.43;;
70213;SDS011;60138;55.808;37.078;2023-08-06T09:36:53;7.50;;;5.28;;
70213;SDS011;60138;55.808;37.078;2023-08-06T09:39:20;8.15;;;6.05;;
70213;SDS011;60138;55.808;37.078;2023-08-06T09:41:47;10.30;;;5.18;;
70213;SDS011;60138;55.808;37.078;2023-08-06T09:44:18;10.07;;;5.00;;
70213;SDS011;60138;55.808;37.078;2023-08-06T09:46:51;8.70;;;5.03;;
70213;SDS011;60138;55.808;37.078;2023-08-06T09:49:18;9.25;;;5.40;;
70213;SDS011;60138;55.808;37.078;2023-08-06T09:51:45;8.93;;;5.25;;
70213;SDS011;60138;55.808;37.078;2023-08-06T09:54:12;8.48;;;4.78;;
70213;SDS011;60138;55.808;37.078;2023-08-06T09:56:40;9.18;;;5.97;;
70213;SDS011;60138;55.808;37.078;2023-08-06T09:59:07;9.90;;;5.40;;
70213;SDS011;60138;55.808;37.078;2023-08-06T10:01:34;8.98;;;5.07;;
70213;SDS011;60138;55.808;37.078;2023-08-06T10:04:00;9.07;;;5.47;;
70213;SDS011;60138;55.808;37.078;2023-08-06T10:06:31;8.20;;;5.13;;
70213;SDS011;60138;55.808;37.078;2023-08-06T10:09:00;8.55;;;5.07;;
70213;SDS011;60138;55.808;37.078;2023-08-06T10:11:26;8.67;;;4.73;;
70213;SDS011;60138;55.808;37.078;2023-08-06T10:13:54;8.50;;;4.75;;
70213;SDS011;60138;55.808;37.078;2023-08-06T10:16:25;7.13;;;5.40;;
70213;SDS011;60138;55.808;37.078;2023-08-06T10:18:52;8.48;;;4.93;;
70213;SDS011;60138;55.808;37.078;2023-08-06T10:21:19;7.17;;;4.20;;
70213;SDS011;60138;55.808;37.078;2023-08-06T10:23:48;9.15;;;5.07;;
70213;SDS011;60138;55.808;37.078;2023-08-06T10:26:19;7.32;;;4.68;;
70213;SDS011;60138;55.808;37.078;2023-08-06T10:28:45;9.20;;;5.00;;
70213;SDS011;60138;55.808;37.078;2023-08-06T10:31:10;8.60;;;4.75;;
70213;SDS011;60138;55.808;37.078;2023-08-06T10:33:43;6.70;;;4.87;;
70213;SDS011;60138;55.808;37.078;2023-08-06T10:36:10;9.52;;;5.00;;
70213;SDS011;60138;55.808;37.078;2023-08-06T10:38:46;10.55;;;5.40;;
70213;SDS011;60138;55.808;37.078;2023-08-06T10:41:23;10.20;;;5.75;;
70213;SDS011;60138;55.808;37.078;2023-08-06T10:44:05;9.82;;;4.90;;
70213;SDS011;60138;55.808;37.078;2023-08-06T10:46:34;7.43;;;5.67;;
70213;SDS011;60138;55.808;37.078;2023-08-06T10:48:59;9.57;;;5.47;;
70213;SDS011;60138;55.808;37.078;2023-08-06T10:51:26;7.57;;;5.32;;
70213;SDS011;60138;55.808;37.078;2023-08-06T10:53:52;10.07;;;5.17;;
70213;SDS011;60138;55.808;37.078;2023-08-06T10:56:18;9.95;;;5.50;;
70213;SDS011;60138;55.808;37.078;2023-08-06T10:58:46;14.82;;;5.07;;
70213;SDS011;60138;55.808;37.078;2023-08-06T11:01:12;10.27;;;5.40;;
70213;SDS011;60138;55.808;37.078;2023-08-06T11:03:38;9.03;;;4.87;;
70213;SDS011;60138;55.808;37.078;2023-08-06T11:06:08;8.98;;;5.15;;
70213;SDS011;60138;55.808;37.078;2023-08-06T11:08:35;8.50;;;5.10;;
70213;SDS011;60138;55.808;37.078;2023-08-06T11:11:12;8.15;;;4.75;;
70213;SDS011;60138;55.808;37.078;2023-08-06T11:13:39;8.53;;;4.93;;
70213;SDS011;60138;55.808;37.078;2023-08-06T11:16:06;10.88;;;4.70;;
70213;SDS011;60138;55.808;37.078;2023-08-06T11:18:33;8.27;;;5.40;;
70213;SDS011;60138;55.808;37.078;2023-08-06T11:20:59;9.77;;;5.70;;
70213;SDS011;60138;55.808;37.078;2023-08-06T11:23:26;7.57;;;5.53;;
70213;SDS011;60138;55.808;37.078;2023-08-06T11:25:55;9.10;;;5.30;;
70213;SDS011;60138;55.808;37.078;2023-08-06T11:28:22;8.80;;;5.45;;
70213;SDS011;60138;55.808;37.078;2023-08-06T11:30:48;10.55;;;5.70;;
70213;SDS011;60138;55.808;37.078;2023-08-06T11:33:14;8.55;;;5.72;;
70213;SDS011;60138;55.808;37.078;2023-08-06T11:35:44;8.50;;;5.37;;
70213;SDS011;60138;55.808;37.078;2023-08-06T11:38:11;9.23;;;7.35;;
70213;SDS011;60138;55.808;37.078;2023-08-06T11:40:38;12.25;;;6.25;;
70213;SDS011;60138;55.808;37.078;2023-08-06T11:43:05;8.30;;;6.03;;
70213;SDS011;60138;55.808;37.078;2023-08-06T11:45:34;11.48;;;6.00;;
70213;SDS011;60138;55.808;37.078;2023-08-06T11:48:00;9.43;;;5.95;;
70213;SDS011;60138;55.808;37.078;2023-08-06T11:50:27;8.65;;;5.90;;
70213;SDS011;60138;55.808;37.078;2023-08-06T11:52:57;10.17;;;6.20;;
70213;SDS011;60138;55.808;37.078;2023-08-06T11:55:24;9.25;;;5.38;;
70213;SDS011;60138;55.808;37.078;2023-08-06T11:57:51;10.55;;;6.05;;
70213;SDS011;60138;55.808;37.078;2023-08-06T12:00:17;9.45;;;5.20;;
70213;SDS011;60138;55.808;37.078;2023-08-06T12:02:43;9.70;;;5.78;;
70213;SDS011;60138;55.808;37.078;2023-08-06T12:07:45;8.85;;;5.15;;
70213;SDS011;60138;55.808;37.078;2023-08-06T12:10:12;10.65;;;5.47;;
70213;SDS011;60138;55.808;37.078;2023-08-06T12:12:39;8.25;;;5.20;;
70213;SDS011;60138;55.808;37.078;2023-08-06T12:15:06;8.07;;;4.85;;
70213;SDS011;60138;55.808;37.078;2023-08-06T12:17:32;11.20;;;6.40;;
70213;SDS011;60138;55.808;37.078;2023-08-06T12:19:58;9.13;;;5.22;;
70213;SDS011;60138;55.808;37.078;2023-08-06T12:22:24;9.27;;;4.60;;
70213;SDS011;60138;55.808;37.078;2023-08-06T12:24:50;10.10;;;5.20;;
70213;SDS011;60138;55.808;37.078;2023-08-06T12:27:16;7.45;;;4.40;;
70213;SDS011;60138;55.808;37.078;2023-08-06T12:29:43;7.32;;;4.13;;
70213;SDS011;60138;55.808;37.078;2023-08-06T12:32:12;8.00;;;4.20;;
70213;SDS011;60138;55.808;37.078;2023-08-06T12:34:39;7.72;;;4.65;;
70213;SDS011;60138;55.808;37.078;2023-08-06T12:37:07;9.00;;;4.80;;
70213;SDS011;60138;55.808;37.078;2023-08-06T12:39:34;14.35;;;5.30;;
70213;SDS011;60138;55.808;37.078;2023-08-06T12:42:00;10.52;;;4.97;;
70213;SDS011;60138;55.808;37.078;2023-08-06T12:44:27;8.15;;;4.75;;
70213;SDS011;60138;55.808;37.078;2023-08-06T12:46:54;8.68;;;5.35;;
70213;SDS011;60138;55.808;37.078;2023-08-06T12:49:20;6.30;;;4.50;;
70213;SDS011;60138;55.808;37.078;2023-08-06T12:51:46;9.30;;;4.97;;
70213;SDS011;60138;55.808;37.078;2023-08-06T12:54:13;8.15;;;4.88;;
70213;SDS011;60138;55.808;37.078;2023-08-06T12:56:38;9.75;;;4.72;;
70213;SDS011;60138;55.808;37.078;2023-08-06T12:59:04;8.90;;;4.73;;
70213;SDS011;60138;55.808;37.078;2023-08-06T13:01:30;10.40;;;4.70;;
70213;SDS011;60138;55.808;37.078;2023-08-06T13:03:56;6.57;;;4.30;;
70213;SDS011;60138;55.808;37.078;2023-08-06T13:06:21;6.93;;;4.57;;
70213;SDS011;60138;55.808;37.078;2023-08-06T13:08:47;9.17;;;4.70;;
70213;SDS011;60138;55.808;37.078;2023-08-06T13:11:13;10.65;;;5.07;;
70213;SDS011;60138;55.808;37.078;2023-08-06T13:13:38;6.80;;;4.30;;
70213;SDS011;60138;55.808;37.078;2023-08-06T13:16:04;11.45;;;4.30;;
70213;SDS011;60138;55.808;37.078;2023-08-06T13:18:30;10.83;;;4.30;;
70213;SDS011;60138;55.808;37.078;2023-08-06T13:20:55;7.95;;;4.82;;
70213;SDS011;60138;55.808;37.078;2023-08-06T13:23:21;8.63;;;4.97;;
70213;SDS011;60138;55.808;37.078;2023-08-06T13:25:47;8.48;;;4.80;;
70213;SDS011;60138;55.808;37.078;2023-08-06T13:28:13;7.03;;;4.37;;
70213;SDS011;60138;55.808;37.078;2023-08-06T13:30:38;6.50;;;4.07;;
70213;SDS011;60138;55.808;37.078;2023-08-06T13:33:05;7.13;;;5.10;;
70213;SDS011;60138;55.808;37.078;2023-08-06T13:35:30;6.77;;;4.40;;
70213;SDS011;60138;55.808;37.078;2023-08-06T13:37:56;8.23;;;4.30;;
70213;SDS011;60138;55.808;37.078;2023-08-06T13:40:22;10.97;;;4.43;;
70213;SDS011;60138;55.808;37.078;2023-08-06T13:42:47;8.57;;;4.20;;
70213;SDS011;60138;55.808;37.078;2023-08-06T13:45:13;11.20;;;4.47;;
70213;SDS011;60138;55.808;37.078;2023-08-06T13:47:39;13.55;;;4.45;;
70213;SDS011;60138;55.808;37.078;2023-08-06T13:50:05;9.52;;;4.45;;
70213;SDS011;60138;55.808;37.078;2023-08-06T13:52:31;7.20;;;4.27;;
70213;SDS011;60138;55.808;37.078;2023-08-06T13:54:57;9.02;;;4.50;;
70213;SDS011;60138;55.808;37.078;2023-08-06T13:57:22;8.07;;;4.97;;
70213;SDS011;60138;55.808;37.078;2023-08-06T13:59:48;9.60;;;5.40;;
70213;SDS011;60138;55.808;37.078;2023-08-06T14:02:14;7.97;;;4.80;;
70213;SDS011;60138;55.808;37.078;2023-08-06T14:04:40;8.02;;;3.85;;
70213;SDS011;60138;55.808;37.078;2023-08-06T14:07:05;7.60;;;3.97;;
70213;SDS011;60138;55.808;37.078;2023-08-06T14:09:31;6.77;;;4.17;;
70213;SDS011;60138;55.808;37.078;2023-08-06T14:11:57;8.07;;;4.20;;
70213;SDS011;60138;55.808;37.078;2023-08-06T14:14:23;5.87;;;4.07;;
70213;SDS011;60138;55.808;37.078;2023-08-06T14:16:48;8.82;;;3.75;;
70213;SDS011;60138;55.808;37.078;2023-08-06T14:19:14;5.73;;;3.83;;
70213;SDS011;60138;55.808;37.078;2023-08-06T14:21:40;8.55;;;4.18;;
70213;SDS011;60138;55.808;37.078;2023-08-06T14:24:05;10.60;;;4.43;;
70213;SDS011;60138;55.808;37.078;2023-08-06T14:26:31;9.23;;;4.25;;
70213;SDS011;60138;55.808;37.078;2023-08-06T14:28:57;8.57;;;4.47;;
70213;SDS011;60138;55.808;37.078;2023-08-06T14:31:23;9.18;;;4.10;;